sensor_id;sensor_type;location;lat;lon;timestamp;pressure;altitude;pressure_sealevel;temperature;humidity
23303;BME280;11820;48.738;9.092;2022-12-26T00:01:28;96278.38;;;11.56;nan
23303;BME280;11820;48.738;9.092;2022-12-26T00:03:55;96270.38;;;11.58;nan
23303;BME280;11820;48.738;9.092;2022-12-26T00:06:23;96269.78;;;11.56;nan
23303;BME280;11820;48.738;9.092;2022-12-26T00:08:49;96266.97;;;11.51;nan
23303;BME280;11820;48.738;9.092;2022-12-26T00:11:16;96272.75;;;11.53;nan
23303;BME280;11820;48.738;9.092;2022-12-26T00:13:41;96266.97;;;11.51;nan
23303;BME280;11820;48.738;9.092;2022-12-26T00:16:09;96266.19;;;11.50;nan
23303;BME280;11820;48.738;9.092;2022-12-26T00:18:35;96273.16;;;11.50;nan
23303;BME280;11820;48.738;9.092;2022-12-26T00:21:00;96283.50;;;11.50;nan
23303;BME280;11820;48.738;9.092;2022-12-26T00:23:26;96273.16;;;11.50;nan
23303;BME280;11820;48.738;9.092;2022-12-26T00:25:51;96276.16;;;11.53;nan
23303;BME280;11820;48.738;9.092;2022-12-26T00:28:16;96289.09;;;11.53;nan
23303;BME280;11820;48.738;9.092;2022-12-26T00:30:42;96280.31;;;11.54;nan
23303;BME280;11820;48.738;9.092;2022-12-26T00:33:07;96294.28;;;11.53;nan
23303;BME280;11820;48.738;9.092;2022-12-26T00:35:32;96286.28;;;11.55;nan
23303;BME280;11820;48.738;9.092;2022-12-26T00:37:58;96294.06;;;11.55;nan
23303;BME280;11820;48.738;9.092;2022-12-26T00:40:23;96282.31;;;11.52;nan
23303;BME280;11820;48.738;9.092;2022-12-26T00:42:48;96279.16;;;11.57;nan
23303;BME280;11820;48.738;9.092;2022-12-26T00:45:14;96285.50;;;11.54;nan
23303;BME280;11820;48.738;9.092;2022-12-26T00:47:39;96283.09;;;11.53;nan
23303;BME280;11820;48.738;9.092;2022-12-26T00:50:05;96278.75;;;11.53;nan
23303;BME280;11820;48.738;9.092;2022-12-26T00:52:30;96275.56;;;11.51;nan
23303;BME280;11820;48.738;9.092;2022-12-26T00:54:56;96277.53;;;11.49;nan
23303;BME280;11820;48.738;9.092;2022-12-26T00:57:21;96281.50;;;11.52;nan
23303;BME280;11820;48.738;9.092;2022-12-26T00:59:46;96291.88;;;11.52;nan
23303;BME280;11820;48.738;9.092;2022-12-26T01:02:12;96295.47;;;11.51;nan
23303;BME280;11820;48.738;9.092;2022-12-26T01:04:56;96280.31;;;11.48;nan
23303;BME280;11820;48.738;9.092;2022-12-26T01:07:21;96271.97;;;11.46;nan
23303;BME280;11820;48.738;9.092;2022-12-26T01:09:46;96277.31;;;11.44;nan
23303;BME280;11820;48.738;9.092;2022-12-26T01:12:12;96278.72;;;11.47;nan
23303;BME280;11820;48.738;9.092;2022-12-26T01:14:37;96276.31;;;11.45;nan
23303;BME280;11820;48.738;9.092;2022-12-26T01:17:02;96286.28;;;11.42;nan
23303;BME280;11820;48.738;9.092;2022-12-26T01:19:28;96287.28;;;11.41;nan
23303;BME280;11820;48.738;9.092;2022-12-26T01:21:53;96275.94;;;11.42;nan
23303;BME280;11820;48.738;9.092;2022-12-26T01:24:18;96289.47;;;11.37;nan
23303;BME280;11820;48.738;9.092;2022-12-26T01:26:44;96285.69;;;11.40;nan
23303;BME280;11820;48.738;9.092;2022-12-26T01:29:10;96277.72;;;11.41;nan
23303;BME280;11820;48.738;9.092;2022-12-26T01:31:35;96276.94;;;11.41;nan
23303;BME280;11820;48.738;9.092;2022-12-26T01:34:01;96284.50;;;11.36;nan
23303;BME280;11820;48.738;9.092;2022-12-26T01:36:26;96284.28;;;11.37;nan
23303;BME280;11820;48.738;9.092;2022-12-26T01:38:53;96285.09;;;11.38;nan
23303;BME280;11820;48.738;9.092;2022-12-26T01:41:18;96290.06;;;11.33;nan
23303;BME280;11820;48.738;9.092;2022-12-26T01:44:00;96292.44;;;11.34;nan
23303;BME280;11820;48.738;9.092;2022-12-26T01:49:33;96294.66;;;11.37;nan
23303;BME280;11820;48.738;9.092;2022-12-26T01:52:00;96301.81;;;11.42;nan
23303;BME280;11820;48.738;9.092;2022-12-26T01:54:29;96299.03;;;11.37;nan
23303;BME280;11820;48.738;9.092;2022-12-26T01:56:56;96300.03;;;11.36;nan
23303;BME280;11820;48.738;9.092;2022-12-26T01:59:27;96293.66;;;11.38;nan
23303;BME280;11820;48.738;9.092;2022-12-26T02:01:54;96297.06;;;11.39;nan
23303;BME280;11820;48.738;9.092;2022-12-26T02:04:26;96295.47;;;11.38;nan
23303;BME280;11820;48.738;9.092;2022-12-26T02:07:11;96293.47;;;11.40;nan
23303;BME280;11820;48.738;9.092;2022-12-26T02:09:37;96291.47;;;11.42;nan
23303;BME280;11820;48.738;9.092;2022-12-26T02:12:28;96292.06;;;11.44;nan
23303;BME280;11820;48.738;9.092;2022-12-26T02:14:56;96279.13;;;11.44;nan
23303;BME280;11820;48.738;9.092;2022-12-26T02:17:22;96278.13;;;11.45;nan
23303;BME280;11820;48.738;9.092;2022-12-26T02:25:25;96288.69;;;11.50;nan
23303;BME280;11820;48.738;9.092;2022-12-26T02:31:10;96295.88;;;11.54;nan
23303;BME280;11820;48.738;9.092;2022-12-26T02:34:05;96306.22;;;11.54;nan
23303;BME280;11820;48.738;9.092;2022-12-26T02:45:20;96316.81;;;11.59;nan
23303;BME280;11820;48.738;9.092;2022-12-26T02:51:40;96294.91;;;11.62;nan
23303;BME280;11820;48.738;9.092;2022-12-26T02:54:55;96311.06;;;11.64;nan
23303;BME280;11820;48.738;9.092;2022-12-26T02:57:50;96297.09;;;11.65;nan
23303;BME280;11820;48.738;9.092;2022-12-26T03:00:40;96306.88;;;11.63;nan
23303;BME280;11820;48.738;9.092;2022-12-26T03:03:28;96308.22;;;11.59;nan
23303;BME280;11820;48.738;9.092;2022-12-26T03:06:18;96311.22;;;11.56;nan
23303;BME280;11820;48.738;9.092;2022-12-26T03:09:31;96318.22;;;11.55;nan
23303;BME280;11820;48.738;9.092;2022-12-26T03:15:04;96301.44;;;11.51;nan
23303;BME280;11820;48.738;9.092;2022-12-26T03:17:42;96305.63;;;11.46;nan
23303;BME280;11820;48.738;9.092;2022-12-26T03:20:17;96296.25;;;11.45;nan
23303;BME280;11820;48.738;9.092;2022-12-26T03:22:47;96296.84;;;11.40;nan
23303;BME280;11820;48.738;9.092;2022-12-26T03:25:19;96285.91;;;11.45;nan
23303;BME280;11820;48.738;9.092;2022-12-26T03:28:05;96291.47;;;11.42;nan
23303;BME280;11820;48.738;9.092;2022-12-26T03:30:31;96285.69;;;11.40;nan
23303;BME280;11820;48.738;9.092;2022-12-26T03:33:16;96278.50;;;11.35;nan
23303;BME280;11820;48.738;9.092;2022-12-26T03:36:00;96283.09;;;11.33;nan
23303;BME280;11820;48.738;9.092;2022-12-26T03:38:52;96278.69;;;11.34;nan
23303;BME280;11820;48.738;9.092;2022-12-26T03:41:41;96272.31;;;11.30;nan
23303;BME280;11820;48.738;9.092;2022-12-26T03:44:34;96273.31;;;11.29;nan
23303;BME280;11820;48.738;9.092;2022-12-26T03:47:46;96287.84;;;11.30;nan
23303;BME280;11820;48.738;9.092;2022-12-26T03:50:39;96270.72;;;11.29;nan
23303;BME280;11820;48.738;9.092;2022-12-26T03:53:36;96285.66;;;11.27;nan
23303;BME280;11820;48.738;9.092;2022-12-26T03:56:33;96280.50;;;11.27;nan
23303;BME280;11820;48.738;9.092;2022-12-26T03:59:34;96284.28;;;11.31;nan
23303;BME280;11820;48.738;9.092;2022-12-26T04:02:21;96274.31;;;11.28;nan
23303;BME280;11820;48.738;9.092;2022-12-26T04:05:09;96290.25;;;11.31;nan
23303;BME280;11820;48.738;9.092;2022-12-26T04:07:58;96295.63;;;11.30;nan
23303;BME280;11820;48.738;9.092;2022-12-26T04:10:47;96287.06;;;11.29;nan
23303;BME280;11820;48.738;9.092;2022-12-26T04:14:02;96291.03;;;11.32;nan
23303;BME280;11820;48.738;9.092;2022-12-26T04:17:00;96299.41;;;11.34;nan
23303;BME280;11820;48.738;9.092;2022-12-26T04:22:24;96306.81;;;11.37;nan
23303;BME280;11820;48.738;9.092;2022-12-26T04:25:20;96304.59;;;11.40;nan
23303;BME280;11820;48.738;9.092;2022-12-26T04:28:06;96302.00;;;11.40;nan
23303;BME280;11820;48.738;9.092;2022-12-26T04:30:59;96301.44;;;11.45;nan
23303;BME280;11820;48.738;9.092;2022-12-26T04:33:55;96305.03;;;11.44;nan
23303;BME280;11820;48.738;9.092;2022-12-26T04:36:55;96303.22;;;11.44;nan
23303;BME280;11820;48.738;9.092;2022-12-26T04:39:43;96305.41;;;11.47;nan
23303;BME280;11820;48.738;9.092;2022-12-26T04:42:29;96312.19;;;11.48;nan
23303;BME280;11820;48.738;9.092;2022-12-26T04:45:14;96304.81;;;11.52;nan
23303;BME280;11820;48.738;9.092;2022-12-26T04:47:40;96298.25;;;11.49;nan
23303;BME280;11820;48.738;9.092;2022-12-26T04:50:25;96294.47;;;11.52;nan
23303;BME280;11820;48.738;9.092;2022-12-26T04:52:50;96300.03;;;11.49;nan
23303;BME280;11820;48.738;9.092;2022-12-26T04:55:29;96297.44;;;11.49;nan
23303;BME280;11820;48.738;9.092;2022-12-26T04:57:56;96299.63;;;11.45;nan
23303;BME280;11820;48.738;9.092;2022-12-26T05:00:23;96299.03;;;11.43;nan
23303;BME280;11820;48.738;9.092;2022-12-26T05:02:55;96303.03;;;11.46;nan
23303;BME280;11820;48.738;9.092;2022-12-26T05:05:41;96297.84;;;11.39;nan
23303;BME280;11820;48.738;9.092;2022-12-26T05:08:33;96290.66;;;11.41;nan
23303;BME280;11820;48.738;9.092;2022-12-26T05:11:18;96291.47;;;11.42;nan
23303;BME280;11820;48.738;9.092;2022-12-26T05:13:44;96294.22;;;11.34;nan
23303;BME280;11820;48.738;9.092;2022-12-26T05:16:09;96292.28;;;11.36;nan
23303;BME280;11820;48.738;9.092;2022-12-26T05:18:53;96289.06;;;11.34;nan
23303;BME280;11820;48.738;9.092;2022-12-26T05:21:37;96287.84;;;11.30;nan
23303;BME280;11820;48.738;9.092;2022-12-26T05:24:22;96294.63;;;11.31;nan
23303;BME280;11820;48.738;9.092;2022-12-26T05:27:11;96299.81;;;11.31;nan
23303;BME280;11820;48.738;9.092;2022-12-26T05:29:56;96302.19;;;11.26;nan
23303;BME280;11820;48.738;9.092;2022-12-26T05:32:21;96293.44;;;11.33;nan
23303;BME280;11820;48.738;9.092;2022-12-26T05:35:05;96298.63;;;11.33;nan
23303;BME280;11820;48.738;9.092;2022-12-26T05:37:31;96303.00;;;11.33;nan
23303;BME280;11820;48.738;9.092;2022-12-26T05:39:56;96291.84;;;11.32;nan
23303;BME280;11820;48.738;9.092;2022-12-26T05:42:21;96303.41;;;11.36;nan
23303;BME280;11820;48.738;9.092;2022-12-26T05:44:47;96304.22;;;11.37;nan
23303;BME280;11820;48.738;9.092;2022-12-26T05:47:12;96307.81;;;11.36;nan
23303;BME280;11820;48.738;9.092;2022-12-26T05:49:37;96311.19;;;11.36;nan
23303;BME280;11820;48.738;9.092;2022-12-26T05:52:03;96305.00;;;11.37;nan
23303;BME280;11820;48.738;9.092;2022-12-26T05:54:28;96305.59;;;11.39;nan
23303;BME280;11820;48.738;9.092;2022-12-26T05:56:54;96318.94;;;11.36;nan
23303;BME280;11820;48.738;9.092;2022-12-26T05:59:19;96310.41;;;11.36;nan
23303;BME280;11820;48.738;9.092;2022-12-26T06:01:44;96313.38;;;11.39;nan
23303;BME280;11820;48.738;9.092;2022-12-26T06:04:10;96321.72;;;11.41;nan
23303;BME280;11820;48.738;9.092;2022-12-26T06:06:35;96326.31;;;11.39;nan
23303;BME280;11820;48.738;9.092;2022-12-26T06:09:00;96323.31;;;11.42;nan
23303;BME280;11820;48.738;9.092;2022-12-26T06:11:26;96305.03;;;11.44;nan
23303;BME280;11820;48.738;9.092;2022-12-26T06:13:51;96304.59;;;11.40;nan
23303;BME280;11820;48.738;9.092;2022-12-26T06:16:17;96309.59;;;11.42;nan
23303;BME280;11820;48.738;9.092;2022-12-26T06:18:44;96301.44;;;11.45;nan
23303;BME280;11820;48.738;9.092;2022-12-26T06:21:19;96305.03;;;11.44;nan
23303;BME280;11820;48.738;9.092;2022-12-26T06:23:45;96309.97;;;11.45;nan
23303;BME280;11820;48.738;9.092;2022-12-26T06:26:11;96305.41;;;11.47;nan
23303;BME280;11820;48.738;9.092;2022-12-26T06:28:37;96303.59;;;11.41;nan
23303;BME280;11820;48.738;9.092;2022-12-26T06:31:06;96303.81;;;11.40;nan
23303;BME280;11820;48.738;9.092;2022-12-26T06:33:32;96301.22;;;11.40;nan
23303;BME280;11820;48.738;9.092;2022-12-26T06:36:11;96297.03;;;11.45;nan
23303;BME280;11820;48.738;9.092;2022-12-26T06:38:36;96301.03;;;11.41;nan
23303;BME280;11820;48.738;9.092;2022-12-26T06:41:06;96295.06;;;11.41;nan
23303;BME280;11820;48.738;9.092;2022-12-26T06:43:32;96301.41;;;11.38;nan
23303;BME280;11820;48.738;9.092;2022-12-26T06:45:59;96307.41;;;11.39;nan
23303;BME280;11820;48.738;9.092;2022-12-26T06:48:25;96304.19;;;11.43;nan
23303;BME280;11820;48.738;9.092;2022-12-26T06:50:51;96305.03;;;11.44;nan
23303;BME280;11820;48.738;9.092;2022-12-26T06:53:19;96304.81;;;11.45;nan
23303;BME280;11820;48.738;9.092;2022-12-26T06:55:44;96301.03;;;11.48;nan
23303;BME280;11820;48.738;9.092;2022-12-26T06:58:09;96307.22;;;11.47;nan
23303;BME280;11820;48.738;9.092;2022-12-26T07:00:35;96313.78;;;11.49;nan
23303;BME280;11820;48.738;9.092;2022-12-26T07:03:00;96305.41;;;11.47;nan
23303;BME280;11820;48.738;9.092;2022-12-26T07:05:26;96303.22;;;11.51;nan
23303;BME280;11820;48.738;9.092;2022-12-26T07:07:52;96312.59;;;11.52;nan
23303;BME280;11820;48.738;9.092;2022-12-26T07:10:19;96313.97;;;11.48;nan
23303;BME280;11820;48.738;9.092;2022-12-26T07:12:46;96316.97;;;11.51;nan
23303;BME280;11820;48.738;9.092;2022-12-26T07:15:11;96313.78;;;11.49;nan
23303;BME280;11820;48.738;9.092;2022-12-26T07:17:36;96314.19;;;11.53;nan
23303;BME280;11820;48.738;9.092;2022-12-26T07:20:06;96314.41;;;11.51;nan
23303;BME280;11820;48.738;9.092;2022-12-26T07:22:32;96315.78;;;11.54;nan
23303;BME280;11820;48.738;9.092;2022-12-26T07:24:57;96318.56;;;11.46;nan
23303;BME280;11820;48.738;9.092;2022-12-26T07:27:23;96308.19;;;11.46;nan
23303;BME280;11820;48.738;9.092;2022-12-26T07:29:48;96311.38;;;11.48;nan
23303;BME280;11820;48.738;9.092;2022-12-26T07:32:14;96314.19;;;11.53;nan
23303;BME280;11820;48.738;9.092;2022-12-26T07:34:40;96329.50;;;11.48;nan
23303;BME280;11820;48.738;9.092;2022-12-26T07:37:05;96320.75;;;11.49;nan
23303;BME280;11820;48.738;9.092;2022-12-26T07:39:31;96310.22;;;11.50;nan
23303;BME280;11820;48.738;9.092;2022-12-26T07:41:56;96319.75;;;11.50;nan
23303;BME280;11820;48.738;9.092;2022-12-26T07:44:22;96324.94;;;11.50;nan
23303;BME280;11820;48.738;9.092;2022-12-26T07:46:47;96321.94;;;11.53;nan
23303;BME280;11820;48.738;9.092;2022-12-26T07:49:13;96315.38;;;11.50;nan
23303;BME280;11820;48.738;9.092;2022-12-26T07:51:39;96317.38;;;11.55;nan
23303;BME280;11820;48.738;9.092;2022-12-26T07:54:05;96321.75;;;11.54;nan
23303;BME280;11820;48.738;9.092;2022-12-26T07:56:31;96339.28;;;11.46;nan
23303;BME280;11820;48.738;9.092;2022-12-26T07:58:56;96337.88;;;11.50;nan
23303;BME280;11820;48.738;9.092;2022-12-26T08:01:22;96328.34;;;11.50;nan
23303;BME280;11820;48.738;9.092;2022-12-26T08:03:49;96342.88;;;11.51;nan
23303;BME280;11820;48.738;9.092;2022-12-26T08:06:15;96335.09;;;11.45;nan
23303;BME280;11820;48.738;9.092;2022-12-26T08:08:41;96327.09;;;11.46;nan
23303;BME280;11820;48.738;9.092;2022-12-26T08:11:07;96323.75;;;11.46;nan
23303;BME280;11820;48.738;9.092;2022-12-26T08:13:34;96318.16;;;11.42;nan
23303;BME280;11820;48.738;9.092;2022-12-26T08:16:04;96325.34;;;11.47;nan
23303;BME280;11820;48.738;9.092;2022-12-26T08:18:30;96326.31;;;11.39;nan
23303;BME280;11820;48.738;9.092;2022-12-26T08:20:57;96327.31;;;11.38;nan
23303;BME280;11820;48.738;9.092;2022-12-26T08:23:22;96335.28;;;11.37;nan
23303;BME280;11820;48.738;9.092;2022-12-26T08:25:47;96324.53;;;11.40;nan
23303;BME280;11820;48.738;9.092;2022-12-26T08:28:13;96335.50;;;11.42;nan
23303;BME280;11820;48.738;9.092;2022-12-26T08:30:39;96338.06;;;11.35;nan
23303;BME280;11820;48.738;9.092;2022-12-26T08:33:05;96351.81;;;11.36;nan
23303;BME280;11820;48.738;9.092;2022-12-26T08:35:35;96349.44;;;11.41;nan
23303;BME280;11820;48.738;9.092;2022-12-26T08:38:01;96364.72;;;11.29;nan
23303;BME280;11820;48.738;9.092;2022-12-26T08:40:27;96361.34;;;11.29;nan
23303;BME280;11820;48.738;9.092;2022-12-26T08:42:52;96362.31;;;11.28;nan
23303;BME280;11820;48.738;9.092;2022-12-26T08:45:18;96373.69;;;11.27;nan
23303;BME280;11820;48.738;9.092;2022-12-26T08:47:43;96376.22;;;11.21;nan
23303;BME280;11820;48.738;9.092;2022-12-26T08:50:09;96388.59;;;11.25;nan
23303;BME280;11820;48.738;9.092;2022-12-26T08:52:34;96393.00;;;11.25;nan
23303;BME280;11820;48.738;9.092;2022-12-26T08:55:00;96397.19;;;11.32;nan
23303;BME280;11820;48.738;9.092;2022-12-26T08:57:26;96401.75;;;11.30;nan
23303;BME280;11820;48.738;9.092;2022-12-26T08:59:51;96411.91;;;11.25;nan
23303;BME280;11820;48.738;9.092;2022-12-26T09:02:16;96418.47;;;11.21;nan
23303;BME280;11820;48.738;9.092;2022-12-26T09:04:42;96419.25;;;11.15;nan
23303;BME280;11820;48.738;9.092;2022-12-26T09:07:07;96428.44;;;11.24;nan
23303;BME280;11820;48.738;9.092;2022-12-26T09:09:33;96428.00;;;11.14;nan
23303;BME280;11820;48.738;9.092;2022-12-26T09:11:58;96433.00;;;11.22;nan
23303;BME280;11820;48.738;9.092;2022-12-26T09:14:24;96448.28;;;11.11;nan
23303;BME280;11820;48.738;9.092;2022-12-26T09:16:49;96439.69;;;11.04;nan
23303;BME280;11820;48.738;9.092;2022-12-26T09:19:16;96445.19;;;10.94;nan
23303;BME280;11820;48.738;9.092;2022-12-26T09:21:42;96435.50;;;11.09;nan
23303;BME280;11820;48.738;9.092;2022-12-26T09:24:13;96429.91;;;10.99;nan
23303;BME280;11820;48.738;9.092;2022-12-26T09:26:39;96426.28;;;10.94;nan
23303;BME280;11820;48.738;9.092;2022-12-26T09:29:05;96425.13;;;10.96;nan
23303;BME280;11820;48.738;9.092;2022-12-26T09:31:32;96426.00;;;10.82;nan
23303;BME280;11820;48.738;9.092;2022-12-26T09:34:06;96427.97;;;10.74;nan
23303;BME280;11820;48.738;9.092;2022-12-26T09:36:33;96440.53;;;10.83;nan
23303;BME280;11820;48.738;9.092;2022-12-26T09:38:59;96445.38;;;10.86;nan
23303;BME280;11820;48.738;9.092;2022-12-26T09:47:24;96468.97;;;10.77;nan
23303;BME280;11820;48.738;9.092;2022-12-26T09:49:56;96469.72;;;10.71;nan
23303;BME280;11820;48.738;9.092;2022-12-26T09:52:50;96458.97;;;10.67;nan
23303;BME280;11820;48.738;9.092;2022-12-26T09:57:50;96452.47;;;10.78;nan
23303;BME280;11820;48.738;9.092;2022-12-26T10:00:24;96466.41;;;10.83;nan
23303;BME280;11820;48.738;9.092;2022-12-26T10:02:53;96468.16;;;10.76;nan
23303;BME280;11820;48.738;9.092;2022-12-26T10:05:26;96493.44;;;10.74;nan
23303;BME280;11820;48.738;9.092;2022-12-26T10:10:57;96503.19;;;10.51;nan
23303;BME280;11820;48.738;9.092;2022-12-26T10:13:56;96491.25;;;10.50;nan
23303;BME280;11820;48.738;9.092;2022-12-26T10:25:20;96501.41;;;10.79;nan
23303;BME280;11820;48.738;9.092;2022-12-26T10:27:48;96497.75;;;10.67;nan
23303;BME280;11820;48.738;9.092;2022-12-26T10:30:19;96498.75;;;10.66;nan
23303;BME280;11820;48.738;9.092;2022-12-26T10:32:50;96497.75;;;10.67;nan
23303;BME280;11820;48.738;9.092;2022-12-26T10:35:38;96491.38;;;10.63;nan
23303;BME280;11820;48.738;9.092;2022-12-26T10:38:15;96497.75;;;10.67;nan
23303;BME280;11820;48.738;9.092;2022-12-26T10:40:47;96510.38;;;10.83;nan
23303;BME280;11820;48.738;9.092;2022-12-26T10:43:32;96501.41;;;10.79;nan
23303;BME280;11820;48.738;9.092;2022-12-26T10:48:42;96493.09;;;10.84;nan
23303;BME280;11820;48.738;9.092;2022-12-26T10:51:08;96495.50;;;10.85;nan
23303;BME280;11820;48.738;9.092;2022-12-26T10:53:40;96496.22;;;10.73;nan
23303;BME280;11820;48.738;9.092;2022-12-26T10:56:07;96482.94;;;10.82;nan
23303;BME280;11820;48.738;9.092;2022-12-26T10:58:35;96477.53;;;10.77;nan
23303;BME280;11820;48.738;9.092;2022-12-26T11:04:00;96503.22;;;10.79;nan
23303;BME280;11820;48.738;9.092;2022-12-26T11:06:46;96501.00;;;10.76;nan
23303;BME280;11820;48.738;9.092;2022-12-26T11:09:41;96491.81;;;10.73;nan
23303;BME280;11820;48.738;9.092;2022-12-26T11:12:37;96481.09;;;10.76;nan
23303;BME280;11820;48.738;9.092;2022-12-26T11:15:16;96485.06;;;10.72;nan
23303;BME280;11820;48.738;9.092;2022-12-26T11:17:44;96476.31;;;10.73;nan
23303;BME280;11820;48.738;9.092;2022-12-26T11:22:40;96466.41;;;10.77;nan
23303;BME280;11820;48.738;9.092;2022-12-26T11:27:37;96450.22;;;10.68;nan
23303;BME280;11820;48.738;9.092;2022-12-26T11:32:47;96483.47;;;10.71;nan
23303;BME280;11820;48.738;9.092;2022-12-26T11:35:22;96492.81;;;10.72;nan
23303;BME280;11820;48.738;9.092;2022-12-26T11:37:55;96493.44;;;10.74;nan
23303;BME280;11820;48.738;9.092;2022-12-26T11:40:24;96488.56;;;10.65;nan
23303;BME280;11820;48.738;9.092;2022-12-26T11:42:57;96494.34;;;10.67;nan
23303;BME280;11820;48.738;9.092;2022-12-26T11:45:29;96499.75;;;10.65;nan
23303;BME280;11820;48.738;9.092;2022-12-26T11:47:56;96500.13;;;10.69;nan
23303;BME280;11820;48.738;9.092;2022-12-26T11:50:25;96484.63;;;10.69;nan
23303;BME280;11820;48.738;9.092;2022-12-26T12:03:42;96444.13;;;10.82;nan
23303;BME280;11820;48.738;9.092;2022-12-26T12:09:15;96457.72;;;10.91;nan
23303;BME280;11820;48.738;9.092;2022-12-26T12:30:23;96453.25;;;10.78;nan
23303;BME280;11820;48.738;9.092;2022-12-26T12:35:41;96459.56;;;10.69;nan
23303;BME280;11820;48.738;9.092;2022-12-26T12:49:52;96455.19;;;10.70;nan
23303;BME280;11820;48.738;9.092;2022-12-26T12:58:13;96461.97;;;10.71;nan
23303;BME280;11820;48.738;9.092;2022-12-26T13:00:49;96469.38;;;10.74;nan
23303;BME280;11820;48.738;9.092;2022-12-26T13:06:36;96450.38;;;10.60;nan
23303;BME280;11820;48.738;9.092;2022-12-26T13:09:13;96447.16;;;10.58;nan
23303;BME280;11820;48.738;9.092;2022-12-26T13:11:52;96450.63;;;10.72;nan
23303;BME280;11820;48.738;9.092;2022-12-26T13:14:22;96451.59;;;10.64;nan
23303;BME280;11820;48.738;9.092;2022-12-26T13:16:55;96458.25;;;10.52;nan
23303;BME280;11820;48.738;9.092;2022-12-26T13:19:25;96471.63;;;10.56;nan
23303;BME280;11820;48.738;9.092;2022-12-26T13:21:54;96455.91;;;10.57;nan
23303;BME280;11820;48.738;9.092;2022-12-26T13:24:32;96438.19;;;10.54;nan
23303;BME280;11820;48.738;9.092;2022-12-26T13:27:15;96422.66;;;10.54;nan
23303;BME280;11820;48.738;9.092;2022-12-26T13:29:44;96428.81;;;10.47;nan
23303;BME280;11820;48.738;9.092;2022-12-26T13:32:29;96418.72;;;10.58;nan
23303;BME280;11820;48.738;9.092;2022-12-26T13:34:58;96420.22;;;10.46;nan
23303;BME280;11820;48.738;9.092;2022-12-26T13:40:05;96404.66;;;10.67;nan
23303;BME280;11820;48.738;9.092;2022-12-26T13:42:37;96414.97;;;10.61;nan
23303;BME280;11820;48.738;9.092;2022-12-26T13:51:03;96419.34;;;10.60;nan
23303;BME280;11820;48.738;9.092;2022-12-26T13:53:39;96408.13;;;10.53;nan
23303;BME280;11820;48.738;9.092;2022-12-26T13:59:04;96425.69;;;10.58;nan
23303;BME280;11820;48.738;9.092;2022-12-26T14:10:54;96432.78;;;10.49;nan
23303;BME280;11820;48.738;9.092;2022-12-26T14:16:17;96419.25;;;10.47;nan
23303;BME280;11820;48.738;9.092;2022-12-26T14:22:18;96420.06;;;10.54;nan
23303;BME280;11820;48.738;9.092;2022-12-26T14:24:36;96415.88;;;10.47;nan
23303;BME280;11820;48.738;9.092;2022-12-26T14:29:48;96424.03;;;10.50;nan
23303;BME280;11820;48.738;9.092;2022-12-26T14:35:22;96397.16;;;10.45;nan
23303;BME280;11820;48.738;9.092;2022-12-26T14:40:37;96418.03;;;10.43;nan
23303;BME280;11820;48.738;9.092;2022-12-26T14:46:02;96425.56;;;10.38;nan
23303;BME280;11820;48.738;9.092;2022-12-26T14:50:54;96402.91;;;10.40;nan
23303;BME280;11820;48.738;9.092;2022-12-26T15:04:19;96401.31;;;10.39;nan
23303;BME280;11820;48.738;9.092;2022-12-26T15:07:22;96402.91;;;10.40;nan
23303;BME280;11820;48.738;9.092;2022-12-26T15:10:38;96399.94;;;10.43;nan
23303;BME280;11820;48.738;9.092;2022-12-26T15:27:23;96414.69;;;10.22;nan
23303;BME280;11820;48.738;9.092;2022-12-26T15:30:16;96407.72;;;10.22;nan
23303;BME280;11820;48.738;9.092;2022-12-26T15:33:00;96418.06;;;10.22;nan
23303;BME280;11820;48.738;9.092;2022-12-26T15:35:34;96432.53;;;10.17;nan
23303;BME280;11820;48.738;9.092;2022-12-26T15:38:13;96418.06;;;10.22;nan
23303;BME280;11820;48.738;9.092;2022-12-26T15:40:44;96431.97;;;10.21;nan
23303;BME280;11820;48.738;9.092;2022-12-26T15:51:58;96412.72;;;10.24;nan
23303;BME280;11820;48.738;9.092;2022-12-26T15:57:21;96402.03;;;10.33;nan
23303;BME280;11820;48.738;9.092;2022-12-26T16:04:53;96390.25;;;10.24;nan
23303;BME280;11820;48.738;9.092;2022-12-26T16:07:34;96401.34;;;10.18;nan
23303;BME280;11820;48.738;9.092;2022-12-26T16:10:06;96422.41;;;10.15;nan
23303;BME280;11820;48.738;9.092;2022-12-26T16:12:39;96426.56;;;10.16;nan
23303;BME280;11820;48.738;9.092;2022-12-26T16:17:33;96411.44;;;10.13;nan
23303;BME280;11820;48.738;9.092;2022-12-26T16:19:58;96425.34;;;10.12;nan
23303;BME280;11820;48.738;9.092;2022-12-26T16:22:33;96412.44;;;10.12;nan
23303;BME280;11820;48.738;9.092;2022-12-26T16:27:39;96413.03;;;10.14;nan
23303;BME280;11820;48.738;9.092;2022-12-26T16:30:11;96417.22;;;10.15;nan
23303;BME280;11820;48.738;9.092;2022-12-26T16:32:39;96424.16;;;10.15;nan
23303;BME280;11820;48.738;9.092;2022-12-26T16:35:12;96436.09;;;10.16;nan
23303;BME280;11820;48.738;9.092;2022-12-26T16:37:40;96431.97;;;10.21;nan
23303;BME280;11820;48.738;9.092;2022-12-26T16:42:32;96432.22;;;10.26;nan
23303;BME280;11820;48.738;9.092;2022-12-26T16:44:58;96442.16;;;10.29;nan
23303;BME280;11820;48.738;9.092;2022-12-26T16:47:24;96439.72;;;10.21;nan
23303;BME280;11820;48.738;9.092;2022-12-26T16:49:51;96436.16;;;10.22;nan
23303;BME280;11820;48.738;9.092;2022-12-26T16:52:32;96443.28;;;10.20;nan
23303;BME280;11820;48.738;9.092;2022-12-26T16:55:22;96441.09;;;10.17;nan
23303;BME280;11820;48.738;9.092;2022-12-26T16:57:49;96438.50;;;10.17;nan
23303;BME280;11820;48.738;9.092;2022-12-26T17:00:18;96443.06;;;10.15;nan
23303;BME280;11820;48.738;9.092;2022-12-26T17:02:46;96440.78;;;10.06;nan
23303;BME280;11820;48.738;9.092;2022-12-26T17:05:23;96428.47;;;10.08;nan
23303;BME280;11820;48.738;9.092;2022-12-26T17:07:51;96426.44;;;10.03;nan
23303;BME280;11820;48.738;9.092;2022-12-26T17:10:23;96417.78;;;10.11;nan
23303;BME280;11820;48.738;9.092;2022-12-26T17:12:50;96417.84;;;10.17;nan
23303;BME280;11820;48.738;9.092;2022-12-26T17:15:26;96417.59;;;10.12;nan
23303;BME280;11820;48.738;9.092;2022-12-26T17:17:52;96429.16;;;10.16;nan
23303;BME280;11820;48.738;9.092;2022-12-26T17:22:47;96436.06;;;10.09;nan